createdAt,value
2018-11-07T00:01:38.943Z,8.25
2018-11-07T00:04:05.883Z,8.27
2018-11-07T00:06:32.827Z,8.25
2018-11-07T00:08:59.775Z,8.04
2018-11-07T00:11:26.730Z,8.15
2018-11-07T00:13:53.677Z,7.99
2018-11-07T00:16:20.616Z,7.94
2018-11-07T00:18:47.582Z,7.96
2018-11-07T00:21:14.494Z,7.91
2018-11-07T00:23:41.447Z,7.93
2018-11-07T00:26:08.397Z,7.87
2018-11-07T00:28:36.342Z,7.61
2018-11-07T00:31:04.256Z,7.70
2018-11-07T00:33:31.179Z,7.74
2018-11-07T00:35:58.135Z,7.80
2018-11-07T00:38:25.087Z,8.04
2018-11-07T00:40:52.007Z,7.84
2018-11-07T00:43:18.947Z,8.07
2018-11-07T00:45:45.898Z,7.94
2018-11-07T00:48:12.834Z,7.79
2018-11-07T00:50:39.790Z,7.84
2018-11-07T00:53:06.731Z,7.93
2018-11-07T00:55:33.673Z,7.88
2018-11-07T00:58:00.628Z,7.80
2018-11-07T01:00:27.578Z,7.80
2018-11-07T01:02:54.518Z,7.78
2018-11-07T01:05:21.444Z,7.75
2018-11-07T01:07:48.411Z,7.47
2018-11-07T01:10:15.358Z,7.44
2018-11-07T01:12:42.784Z,7.32
2018-11-07T01:15:10.422Z,7.33
2018-11-07T01:17:37.334Z,7.21
2018-11-07T01:20:04.973Z,6.98
2018-11-07T01:22:31.956Z,6.91
2018-11-07T01:24:59.070Z,6.77
2018-11-07T01:27:25.929Z,6.59
2018-11-07T01:29:52.900Z,6.67
2018-11-07T01:32:19.828Z,6.60
2018-11-07T01:34:46.740Z,7.27
2018-11-07T01:37:13.723Z,7.34
2018-11-07T01:39:40.623Z,7.11
2018-11-07T01:42:07.651Z,6.36
2018-11-07T01:44:34.535Z,5.97
2018-11-07T01:47:01.471Z,6.01
2018-11-07T01:49:28.402Z,5.88
2018-11-07T01:51:55.358Z,5.90
2018-11-07T01:54:22.304Z,5.97
2018-11-07T01:56:49.323Z,5.85
2018-11-07T01:59:16.283Z,5.85
2018-11-07T02:01:43.227Z,5.77
2018-11-07T02:04:10.194Z,6.02
2018-11-07T02:06:37.156Z,6.04
2018-11-07T02:09:06.771Z,6.04
2018-11-07T02:11:33.674Z,6.09
2018-11-07T02:14:00.619Z,6.18
2018-11-07T02:16:27.565Z,6.35
2018-11-07T02:18:54.534Z,6.21
2018-11-07T02:21:21.455Z,6.28
2018-11-07T02:23:48.406Z,6.07
2018-11-07T02:26:15.391Z,5.89
2018-11-07T02:28:42.294Z,5.82
2018-11-07T02:31:09.252Z,5.67
2018-11-07T02:33:36.184Z,5.61
2018-11-07T02:36:03.044Z,5.60
2018-11-07T02:38:29.946Z,5.76
2018-11-07T02:40:56.915Z,5.87
2018-11-07T02:43:23.875Z,5.82
2018-11-07T02:45:50.794Z,6.03
2018-11-07T02:48:17.764Z,6.07
2018-11-07T02:50:44.694Z,6.00
2018-11-07T02:53:11.678Z,5.88
2018-11-07T02:55:38.575Z,5.88
2018-11-07T02:58:05.519Z,5.65
2018-11-07T03:00:32.470Z,5.44
2018-11-07T03:02:59.404Z,5.43
2018-11-07T03:05:26.350Z,5.64
2018-11-07T03:07:53.299Z,5.40
2018-11-07T03:10:20.262Z,5.43
2018-11-07T03:12:47.190Z,5.52
2018-11-07T03:15:14.171Z,5.51
2018-11-07T03:17:41.087Z,5.46
2018-11-07T03:20:09.173Z,5.42
2018-11-07T03:22:36.098Z,5.39
2018-11-07T03:25:03.068Z,5.48
2018-11-07T03:27:29.982Z,5.45
2018-11-07T03:29:56.930Z,5.43
2018-11-07T03:32:23.892Z,5.39
2018-11-07T03:34:50.827Z,5.12
2018-11-07T03:37:17.798Z,4.91
2018-11-07T03:39:44.770Z,4.90
2018-11-07T03:42:11.683Z,4.73
2018-11-07T03:44:38.599Z,4.67
2018-11-07T03:47:06.612Z,4.64
2018-11-07T03:49:33.532Z,4.60
2018-11-07T03:52:00.455Z,4.63
2018-11-07T03:54:27.426Z,4.65
2018-11-07T03:56:54.351Z,4.61
2018-11-07T03:59:21.315Z,4.70
2018-11-07T04:01:48.255Z,4.73
2018-11-07T04:04:15.186Z,4.89
2018-11-07T04:06:42.151Z,4.94
2018-11-07T04:09:10.675Z,4.92
2018-11-07T04:11:37.643Z,4.72
2018-11-07T04:14:04.612Z,4.73
2018-11-07T04:16:31.551Z,4.79
2018-11-07T04:18:58.499Z,4.74
2018-11-07T04:21:25.430Z,4.60
2018-11-07T04:23:57.191Z,4.64
2018-11-07T04:26:24.135Z,4.54
2018-11-07T04:28:51.139Z,4.68
2018-11-07T04:31:18.075Z,4.62
2018-11-07T04:33:44.978Z,5.24
2018-11-07T04:36:12.052Z,5.54
2018-11-07T04:38:39.124Z,5.27
2018-11-07T04:41:06.231Z,5.35
2018-11-07T04:43:34.804Z,5.77
2018-11-07T04:46:01.284Z,5.50
2018-11-07T04:48:28.307Z,5.15
2018-11-07T04:50:56.408Z,5.22
2018-11-07T04:53:23.445Z,5.17
2018-11-07T04:55:50.532Z,5.20
2018-11-07T04:58:17.517Z,5.65
2018-11-07T05:00:44.618Z,5.25
2018-11-07T05:03:13.294Z,5.18
2018-11-07T05:05:41.236Z,5.14
2018-11-07T05:08:08.402Z,5.05
2018-11-07T05:10:37.470Z,5.03
2018-11-07T05:13:04.567Z,4.98
2018-11-07T05:15:31.674Z,4.76
2018-11-07T05:17:58.778Z,4.67
2018-11-07T05:20:25.912Z,4.67
2018-11-07T05:22:52.971Z,4.58
2018-11-07T05:25:20.086Z,4.62
2018-11-07T05:27:47.121Z,4.63
2018-11-07T05:30:15.194Z,4.64
2018-11-07T05:32:42.246Z,4.55
2018-11-07T05:35:09.330Z,4.66
2018-11-07T05:37:36.460Z,5.26
2018-11-07T05:40:03.517Z,4.91
2018-11-07T05:42:31.293Z,4.87
2018-11-07T05:44:58.756Z,4.79
2018-11-07T05:47:25.725Z,4.73
2018-11-07T05:49:52.819Z,4.72
2018-11-07T05:52:19.733Z,4.73
2018-11-07T05:54:47.080Z,4.76
2018-11-07T05:57:14.141Z,4.58
2018-11-07T05:59:41.240Z,4.47
2018-11-07T06:02:08.962Z,4.52
2018-11-07T06:04:36.012Z,4.67
2018-11-07T06:07:03.065Z,4.75
2018-11-07T06:09:30.020Z,4.72
2018-11-07T06:11:57.045Z,4.86
2018-11-07T06:14:24.096Z,4.79
2018-11-07T06:16:51.169Z,4.84
2018-11-07T06:19:18.152Z,5.29
2018-11-07T06:21:45.219Z,4.91
2018-11-07T06:24:12.475Z,4.71
2018-11-07T06:26:39.573Z,4.53
2018-11-07T06:29:06.742Z,4.60
2018-11-07T06:31:33.960Z,4.67
2018-11-07T06:34:01.050Z,4.72
2018-11-07T06:36:28.073Z,4.43
2018-11-07T06:38:55.094Z,4.22
2018-11-07T06:41:22.181Z,4.45
2018-11-07T06:43:49.280Z,4.34
2018-11-07T06:46:17.244Z,4.32
2018-11-07T06:48:44.361Z,5.04
2018-11-07T06:51:12.426Z,4.73
2018-11-07T06:53:39.544Z,4.93
2018-11-07T06:56:06.715Z,4.83
2018-11-07T06:58:33.799Z,4.60
2018-11-07T07:01:01.879Z,4.80
2018-11-07T07:03:28.897Z,4.83
2018-11-07T07:05:57.019Z,5.22
2018-11-07T07:08:24.023Z,5.05
2018-11-07T07:10:50.939Z,5.49
2018-11-07T07:13:18.043Z,5.20
2018-11-07T07:15:45.093Z,5.16
2018-11-07T07:18:12.272Z,5.28
2018-11-07T07:20:40.127Z,5.17
2018-11-07T07:23:07.206Z,5.38
2018-11-07T07:25:34.217Z,5.51
2018-11-07T07:28:01.091Z,5.49
2018-11-07T07:30:28.225Z,5.52
2018-11-07T07:32:55.850Z,5.85
2018-11-07T07:35:23.253Z,5.93
2018-11-07T07:37:50.327Z,6.20
2018-11-07T07:40:17.258Z,6.35
2018-11-07T07:42:44.727Z,6.43
2018-11-07T07:45:14.502Z,6.71
2018-11-07T07:47:41.969Z,6.76
2018-11-07T07:50:10.746Z,6.77
2018-11-07T07:52:37.711Z,6.84
2018-11-07T07:55:05.173Z,6.93
2018-11-07T07:57:32.107Z,6.90
2018-11-07T07:59:59.075Z,6.82
2018-11-07T08:02:26.015Z,6.75
2018-11-07T08:04:52.947Z,6.95
2018-11-07T08:07:19.911Z,7.11
2018-11-07T08:09:46.838Z,7.41
2018-11-07T08:12:13.771Z,7.79
2018-11-07T08:14:40.780Z,7.90
2018-11-07T08:17:07.680Z,8.04
2018-11-07T08:19:34.608Z,8.09
2018-11-07T08:22:01.555Z,8.22
2018-11-07T08:24:28.495Z,8.27
2018-11-07T08:26:55.454Z,8.25
2018-11-07T08:29:22.383Z,8.20
2018-11-07T08:31:49.333Z,8.14
2018-11-07T08:34:16.299Z,8.27
2018-11-07T08:36:43.231Z,8.53
2018-11-07T08:39:11.691Z,8.81
2018-11-07T08:41:38.713Z,8.88
2018-11-07T08:44:05.654Z,9.07
2018-11-07T08:46:32.522Z,9.01
2018-11-07T08:48:59.571Z,9.27
2018-11-07T08:51:26.446Z,9.48
2018-11-07T08:53:53.371Z,9.64
2018-11-07T08:56:20.324Z,9.84
2018-11-07T08:58:47.264Z,9.92
2018-11-07T09:01:14.289Z,10.24
2018-11-07T09:03:41.163Z,10.26
2018-11-07T09:06:08.091Z,10.19
2018-11-07T09:08:35.045Z,10.56
2018-11-07T09:11:01.990Z,10.73
2018-11-07T09:13:28.930Z,10.87
2018-11-07T09:15:55.879Z,11.40
2018-11-07T09:18:22.815Z,11.29
2018-11-07T09:20:49.764Z,11.39
2018-11-07T09:23:16.707Z,11.55
2018-11-07T09:25:43.671Z,11.46
2018-11-07T09:28:10.596Z,11.45
2018-11-07T09:30:37.555Z,11.72
2018-11-07T09:33:04.659Z,11.69
2018-11-07T09:35:31.568Z,11.77
2018-11-07T09:37:58.519Z,11.88
2018-11-07T09:40:25.422Z,12.12
2018-11-07T09:42:52.366Z,12.09
2018-11-07T09:45:20.537Z,12.31
2018-11-07T09:47:47.690Z,12.40
2018-11-07T09:50:15.459Z,12.46
2018-11-07T09:52:42.619Z,12.48
2018-11-07T09:55:10.871Z,12.65
2018-11-07T09:57:38.173Z,12.71
2018-11-07T10:00:07.561Z,12.65
2018-11-07T10:02:34.507Z,12.54
2018-11-07T10:05:01.475Z,12.45
2018-11-07T10:07:28.407Z,12.45
2018-11-07T10:09:55.371Z,12.30
2018-11-07T10:12:22.319Z,12.34
2018-11-07T10:14:49.212Z,12.51
2018-11-07T10:17:16.151Z,12.53
2018-11-07T10:19:43.111Z,12.67
2018-11-07T10:22:10.064Z,12.74
2018-11-07T10:24:37.012Z,12.89
2018-11-07T10:27:04.237Z,13.07
2018-11-07T10:29:31.287Z,13.21
2018-11-07T10:31:58.067Z,13.26
2018-11-07T10:34:25.005Z,13.42
2018-11-07T10:36:51.919Z,13.48
2018-11-07T10:39:18.940Z,13.39
2018-11-07T10:41:45.815Z,13.27
2018-11-07T10:44:12.780Z,13.51
2018-11-07T10:46:39.703Z,13.72
2018-11-07T10:49:06.696Z,13.95
2018-11-07T10:51:33.583Z,14.02
2018-11-07T10:54:00.568Z,14.10
2018-11-07T10:56:27.489Z,14.22
2018-11-07T10:58:54.424Z,14.01
2018-11-07T11:01:27.165Z,14.11
2018-11-07T11:03:54.073Z,13.97
2018-11-07T11:06:21.010Z,14.22
2018-11-07T11:08:47.923Z,14.60
2018-11-07T11:11:14.948Z,14.42
2018-11-07T11:13:41.855Z,14.73
2018-11-07T11:16:08.771Z,14.79
2018-11-07T11:18:35.721Z,14.93
2018-11-07T11:21:02.672Z,15.05
2018-11-07T11:23:29.596Z,15.07
2018-11-07T11:25:56.566Z,15.07
2018-11-07T11:28:23.507Z,15.17
2018-11-07T11:30:50.434Z,14.77
2018-11-07T11:33:17.413Z,15.12
2018-11-07T11:35:44.330Z,15.38
2018-11-07T11:38:11.297Z,15.41
2018-11-07T11:40:38.301Z,15.59
2018-11-07T11:43:05.182Z,15.55
2018-11-07T11:45:32.098Z,15.59
2018-11-07T11:47:59.082Z,15.68
2018-11-07T11:50:26.003Z,15.82
2018-11-07T11:52:52.946Z,15.79
2018-11-07T11:55:19.895Z,15.66
2018-11-07T11:57:47.188Z,15.64
2018-11-07T12:00:15.689Z,15.48
2018-11-07T12:02:42.914Z,15.73
2018-11-07T12:05:11.239Z,15.70
2018-11-07T12:07:38.395Z,15.61
2018-11-07T12:10:10.531Z,15.64
2018-11-07T12:12:37.420Z,15.66
2018-11-07T12:15:04.738Z,15.62
2018-11-07T12:17:31.618Z,15.77
2018-11-07T12:19:58.543Z,15.78
2018-11-07T12:22:25.500Z,15.84
2018-11-07T12:24:52.444Z,15.98
2018-11-07T12:27:19.392Z,16.23
2018-11-07T12:29:46.327Z,16.55
2018-11-07T12:32:13.263Z,16.61
2018-11-07T12:34:40.216Z,16.65
2018-11-07T12:37:07.170Z,16.70
2018-11-07T12:39:34.152Z,16.53
2018-11-07T12:42:01.050Z,16.48
2018-11-07T12:44:27.999Z,16.43
2018-11-07T12:46:54.975Z,16.83
2018-11-07T12:49:21.890Z,16.92
2018-11-07T12:51:48.826Z,16.98
2018-11-07T12:54:15.774Z,17.05
2018-11-07T12:56:42.719Z,16.85
2018-11-07T12:59:10.587Z,17.05
2018-11-07T13:01:37.526Z,17.09
2018-11-07T13:04:05.402Z,16.87
2018-11-07T13:06:32.332Z,16.89
2018-11-07T13:09:00.568Z,16.95
2018-11-07T13:11:29.498Z,16.80
2018-11-07T13:13:56.405Z,16.94
2018-11-07T13:16:23.313Z,17.35
2018-11-07T13:18:50.239Z,17.46
2018-11-07T13:21:17.193Z,17.11
2018-11-07T13:23:44.114Z,17.12
2018-11-07T13:26:11.075Z,17.03
2018-11-07T13:28:42.465Z,16.89
2018-11-07T13:31:09.938Z,16.79
2018-11-07T13:33:37.998Z,17.24
2018-11-07T13:36:05.935Z,16.95
2018-11-07T13:38:33.296Z,16.88
2018-11-07T13:40:59.942Z,16.93
2018-11-07T13:43:26.767Z,16.78
2018-11-07T13:45:53.717Z,16.70
2018-11-07T13:48:20.731Z,16.66
2018-11-07T13:50:47.747Z,16.59
2018-11-07T13:53:14.880Z,16.58
2018-11-07T13:55:42.486Z,16.59
2018-11-07T13:58:09.620Z,16.70
2018-11-07T14:00:36.839Z,16.82
2018-11-07T14:03:04.368Z,16.84
2018-11-07T14:05:31.309Z,16.89
2018-11-07T14:07:58.146Z,16.91
2018-11-07T14:10:25.642Z,17.03
2018-11-07T14:12:52.958Z,17.00
2018-11-07T14:15:19.851Z,16.99
2018-11-07T14:17:46.803Z,17.05
2018-11-07T14:20:13.726Z,16.73
2018-11-07T14:22:40.755Z,16.66
2018-11-07T14:25:08.297Z,16.47
2018-11-07T14:27:35.291Z,16.44
2018-11-07T14:30:02.094Z,16.29
2018-11-07T14:32:29.387Z,16.10
2018-11-07T14:34:56.270Z,16.76
2018-11-07T14:37:23.138Z,16.26
2018-11-07T14:39:50.083Z,16.07
2018-11-07T14:42:17.020Z,16.07
2018-11-07T14:44:43.955Z,15.77
2018-11-07T14:47:10.913Z,15.80
2018-11-07T14:49:37.739Z,15.76
2018-11-07T14:52:04.911Z,15.62
2018-11-07T14:54:32.783Z,15.67
2018-11-07T14:56:59.743Z,15.60
2018-11-07T14:59:26.663Z,15.53
2018-11-07T15:01:54.518Z,15.52
2018-11-07T15:04:21.423Z,15.55
2018-11-07T15:06:48.303Z,15.49
2018-11-07T15:09:15.143Z,15.93
2018-11-07T15:11:42.046Z,15.37
2018-11-07T15:14:08.843Z,15.18
2018-11-07T15:16:35.785Z,14.80
2018-11-07T15:19:02.739Z,14.74
2018-11-07T15:21:29.563Z,14.61
2018-11-07T15:23:56.422Z,14.53
2018-11-07T15:26:23.350Z,14.50
2018-11-07T15:28:50.202Z,14.34
2018-11-07T15:31:17.147Z,14.20
2018-11-07T15:33:43.986Z,14.16
2018-11-07T15:36:11.018Z,14.05
2018-11-07T15:38:37.867Z,13.81
2018-11-07T15:41:04.730Z,13.93
2018-11-07T15:43:31.744Z,13.70
2018-11-07T15:45:58.615Z,13.71
2018-11-07T15:48:25.560Z,13.75
2018-11-07T15:50:58.383Z,13.79
2018-11-07T15:53:25.287Z,13.75
2018-11-07T15:55:52.230Z,14.21
2018-11-07T15:58:20.110Z,14.49
2018-11-07T16:00:47.055Z,14.15
2018-11-07T16:03:17.877Z,14.03
2018-11-07T16:05:44.862Z,14.01
2018-11-07T16:08:11.807Z,13.96
2018-11-07T16:10:38.742Z,13.65
2018-11-07T16:13:05.699Z,13.91
2018-11-07T16:15:32.708Z,13.78
2018-11-07T16:17:59.628Z,13.63
2018-11-07T16:20:26.486Z,13.46
2018-11-07T16:22:53.507Z,13.29
2018-11-07T16:25:20.436Z,13.28
2018-11-07T16:27:47.368Z,13.39
2018-11-07T16:30:15.791Z,13.32
2018-11-07T16:32:42.767Z,13.55
2018-11-07T16:35:10.619Z,13.50
2018-11-07T16:37:37.579Z,13.48
2018-11-07T16:40:06.287Z,13.52
2018-11-07T16:42:33.242Z,13.62
2018-11-07T16:45:00.127Z,13.68
2018-11-07T16:47:27.126Z,13.52
2018-11-07T16:49:53.918Z,13.70
2018-11-07T16:52:20.866Z,13.66
2018-11-07T16:54:47.803Z,13.65
2018-11-07T16:57:14.693Z,13.56
2018-11-07T16:59:41.593Z,13.57
2018-11-07T17:02:08.535Z,13.50
2018-11-07T17:04:35.577Z,13.47
2018-11-07T17:07:02.443Z,13.37
2018-11-07T17:09:29.387Z,13.29
2018-11-07T17:11:57.243Z,13.47
2018-11-07T17:14:24.187Z,13.35
2018-11-07T17:16:51.131Z,13.26
2018-11-07T17:19:18.087Z,13.34
2018-11-07T17:21:45.019Z,13.52
2018-11-07T17:24:12.116Z,13.46
2018-11-07T17:26:38.984Z,13.50
2018-11-07T17:29:05.856Z,13.62
2018-11-07T17:31:32.772Z,13.73
2018-11-07T17:33:59.683Z,13.59
2018-11-07T17:36:26.594Z,13.47
2018-11-07T17:38:53.527Z,13.35
2018-11-07T17:41:20.550Z,13.36
2018-11-07T17:43:47.425Z,13.42
2018-11-07T17:46:14.366Z,13.30
2018-11-07T17:48:41.379Z,13.30
2018-11-07T17:51:08.250Z,13.04
2018-11-07T17:53:35.195Z,12.90
2018-11-07T17:56:02.055Z,12.80
2018-11-07T17:58:28.987Z,12.98
2018-11-07T18:00:55.943Z,12.91
2018-11-07T18:03:22.885Z,12.88
2018-11-07T18:05:49.847Z,13.01
2018-11-07T18:08:16.773Z,12.69
2018-11-07T18:10:43.714Z,12.89
2018-11-07T18:13:10.659Z,12.75
2018-11-07T18:15:37.623Z,12.72
2018-11-07T18:18:04.873Z,12.75
2018-11-07T18:20:31.891Z,12.62
2018-11-07T18:22:58.790Z,12.78
2018-11-07T18:25:25.710Z,12.68
2018-11-07T18:27:52.643Z,12.54
2018-11-07T18:30:19.595Z,12.44
2018-11-07T18:32:47.181Z,12.45
2018-11-07T18:35:15.631Z,12.45
2018-11-07T18:37:42.775Z,13.20
2018-11-07T18:40:11.083Z,12.75
2018-11-07T18:42:38.239Z,12.65
2018-11-07T18:45:07.386Z,12.61
2018-11-07T18:47:34.330Z,12.77
2018-11-07T18:50:01.200Z,12.63
2018-11-07T18:52:28.132Z,12.70
2018-11-07T18:54:55.078Z,12.54
2018-11-07T18:57:22.043Z,12.56
2018-11-07T18:59:48.971Z,12.61
2018-11-07T19:02:15.915Z,12.53
2018-11-07T19:04:43.883Z,12.65
2018-11-07T19:07:10.834Z,12.70
2018-11-07T19:09:37.859Z,12.61
2018-11-07T19:12:04.843Z,12.32
2018-11-07T19:14:31.759Z,12.18
2018-11-07T19:16:58.707Z,12.36
2018-11-07T19:19:25.646Z,12.52
2018-11-07T19:21:53.563Z,12.56
2018-11-07T19:24:21.519Z,12.94
2018-11-07T19:26:48.564Z,13.07
2018-11-07T19:29:15.386Z,12.55
2018-11-07T19:31:42.318Z,12.68
2018-11-07T19:34:09.574Z,12.71
2018-11-07T19:36:36.520Z,12.67
2018-11-07T19:39:06.167Z,12.49
2018-11-07T19:41:33.078Z,12.37
2018-11-07T19:44:00.039Z,12.46
2018-11-07T19:46:26.979Z,12.64
2018-11-07T19:48:53.900Z,12.65
2018-11-07T19:51:20.856Z,12.74
2018-11-07T19:53:47.803Z,12.71
2018-11-07T19:56:14.730Z,12.72
2018-11-07T19:58:41.691Z,12.65
2018-11-07T20:01:08.619Z,12.79
2018-11-07T20:03:35.565Z,12.80
2018-11-07T20:06:04.759Z,13.04
2018-11-07T20:08:31.599Z,12.88
2018-11-07T20:10:59.445Z,12.82
2018-11-07T20:13:26.317Z,12.76
2018-11-07T20:15:53.318Z,12.91
2018-11-07T20:18:20.223Z,12.79
2018-11-07T20:20:47.153Z,12.79
2018-11-07T20:23:14.142Z,12.69
2018-11-07T20:25:41.032Z,12.72
2018-11-07T20:28:07.974Z,12.73
2018-11-07T20:30:34.927Z,12.77
2018-11-07T20:33:01.867Z,12.88
2018-11-07T20:35:28.907Z,12.86
2018-11-07T20:37:56.686Z,12.74
2018-11-07T20:40:23.628Z,13.32
2018-11-07T20:42:50.582Z,12.69
2018-11-07T20:45:17.826Z,12.52
2018-11-07T20:47:45.815Z,12.40
2018-11-07T20:50:14.995Z,13.11
2018-11-07T20:52:43.362Z,12.51
2018-11-07T20:55:11.235Z,12.36
2018-11-07T20:57:38.282Z,12.28
2018-11-07T21:00:11.670Z,12.17
2018-11-07T21:02:38.923Z,12.09
2018-11-07T21:05:06.082Z,12.06
2018-11-07T21:07:32.914Z,11.86
2018-11-07T21:09:59.863Z,11.91
2018-11-07T21:12:26.802Z,11.97
2018-11-07T21:14:53.675Z,12.09
2018-11-07T21:17:20.595Z,12.15
2018-11-07T21:19:47.473Z,12.20
2018-11-07T21:22:14.410Z,12.17
2018-11-07T21:27:08.317Z,12.13
2018-11-07T21:29:36.136Z,11.86
2018-11-07T21:32:03.031Z,11.92
2018-11-07T21:34:30.091Z,12.02
2018-11-07T21:36:56.991Z,12.07
2018-11-07T21:39:23.937Z,12.06
2018-11-07T21:41:50.890Z,12.09
2018-11-07T21:44:17.814Z,12.45
2018-11-07T21:46:44.754Z,12.18
2018-11-07T21:49:11.699Z,12.11
2018-11-07T21:51:38.682Z,12.30
2018-11-07T21:54:05.614Z,12.15
2018-11-07T21:56:32.486Z,12.18
2018-11-07T21:59:00.438Z,12.17
2018-11-07T22:01:27.368Z,12.28
2018-11-07T22:03:54.293Z,12.21
2018-11-07T22:06:22.173Z,12.06
2018-11-07T22:08:49.102Z,12.10
2018-11-07T22:11:16.046Z,12.13
2018-11-07T22:13:43.010Z,12.14
2018-11-07T22:16:09.938Z,12.13
2018-11-07T22:18:36.883Z,12.13
2018-11-07T22:21:04.134Z,12.22
2018-11-07T22:23:31.084Z,12.31
2018-11-07T22:25:58.032Z,12.24
2018-11-07T22:28:25.064Z,12.65
2018-11-07T22:30:51.918Z,12.30
2018-11-07T22:33:18.855Z,12.13
2018-11-07T22:35:45.818Z,12.01
2018-11-07T22:38:12.754Z,12.07
2018-11-07T22:40:40.626Z,12.15
2018-11-07T22:43:07.569Z,12.12
2018-11-07T22:45:34.510Z,12.15
2018-11-07T22:48:01.463Z,12.07
2018-11-07T22:50:28.391Z,12.05
2018-11-07T22:52:55.346Z,11.93
2018-11-07T22:55:22.282Z,12.01
2018-11-07T22:57:49.247Z,12.02
2018-11-07T23:00:22.471Z,12.10
2018-11-07T23:02:51.618Z,12.20
2018-11-07T23:05:18.583Z,12.72
2018-11-07T23:07:45.607Z,12.34
2018-11-07T23:10:12.687Z,12.30
2018-11-07T23:12:39.610Z,12.30
2018-11-07T23:15:06.742Z,12.25
2018-11-07T23:17:33.710Z,12.23
2018-11-07T23:20:00.671Z,12.30
2018-11-07T23:22:27.591Z,12.07
2018-11-07T23:24:54.539Z,12.04
2018-11-07T23:27:21.514Z,11.75
2018-11-07T23:29:48.442Z,11.55
2018-11-07T23:32:15.371Z,11.59
2018-11-07T23:34:42.194Z,11.51
2018-11-07T23:37:09.062Z,11.58
2018-11-07T23:39:36.014Z,11.55
2018-11-07T23:42:02.982Z,11.70
2018-11-07T23:44:29.889Z,11.68
2018-11-07T23:46:56.826Z,11.67
2018-11-07T23:49:23.774Z,11.79
2018-11-07T23:51:50.727Z,11.77
2018-11-07T23:54:19.410Z,11.79
2018-11-07T23:56:46.351Z,11.80
2018-11-07T23:59:14.255Z,11.76
